createdAt,value
2019-05-03T00:00:06.332Z,10.35
2019-05-03T00:02:57.580Z,10.20
2019-05-03T00:05:52.986Z,10.15
2019-05-03T00:08:23.713Z,10.53
2019-05-03T00:10:54.280Z,10.44
2019-05-03T00:13:24.756Z,10.38
2019-05-03T00:16:13.986Z,10.14
2019-05-03T00:18:44.787Z,10.19
2019-05-03T00:21:15.245Z,10.21
2019-05-03T00:23:45.589Z,10.32
2019-05-03T00:26:16.062Z,10.35
2019-05-03T00:28:46.866Z,10.28
2019-05-03T00:31:17.224Z,10.24
2019-05-03T00:33:51.581Z,10.18
2019-05-03T00:36:49.814Z,10.16
2019-05-03T00:39:32.469Z,10.18
2019-05-03T00:42:02.949Z,10.23
2019-05-03T00:44:33.772Z,10.01
2019-05-03T00:47:04.753Z,10.04
2019-05-03T00:49:35.107Z,9.98
2019-05-03T00:52:05.635Z,9.88
2019-05-03T00:54:35.966Z,10.08
2019-05-03T00:57:07.579Z,9.85
2019-05-03T00:59:38.315Z,9.79
2019-05-03T01:02:11.650Z,9.82
2019-05-03T01:04:42.729Z,9.84
2019-05-03T01:07:13.128Z,9.83
2019-05-03T01:09:43.454Z,9.69
2019-05-03T01:12:13.883Z,9.75
2019-05-03T01:14:47.553Z,9.48
2019-05-03T01:17:17.922Z,9.68
2019-05-03T01:19:48.374Z,9.68
2019-05-03T01:22:19.110Z,9.70
2019-05-03T01:24:49.455Z,9.62
2019-05-03T01:27:21.988Z,9.68
2019-05-03T01:29:52.383Z,9.70
2019-05-03T01:32:22.827Z,9.58
2019-05-03T01:34:53.551Z,9.69
2019-05-03T01:37:25.291Z,9.63
2019-05-03T01:39:55.680Z,9.57
2019-05-03T01:42:26.243Z,9.65
2019-05-03T01:44:56.581Z,9.59
2019-05-03T01:47:41.932Z,9.50
2019-05-03T01:50:20.555Z,9.48
2019-05-03T01:52:52.440Z,9.36
2019-05-03T01:55:24.772Z,9.32
2019-05-03T01:57:55.523Z,9.25
2019-05-03T02:00:27.580Z,9.20
2019-05-03T02:03:05.383Z,9.00
2019-05-03T02:06:03.731Z,8.98
2019-05-03T02:08:34.040Z,8.98
2019-05-03T02:11:04.873Z,9.01
2019-05-03T02:13:35.352Z,9.03
2019-05-03T02:16:05.759Z,8.91
2019-05-03T02:18:36.467Z,8.96
2019-05-03T02:21:07.269Z,8.87
2019-05-03T02:23:37.548Z,8.86
2019-05-03T02:26:08.291Z,8.87
2019-05-03T02:28:38.891Z,8.77
2019-05-03T02:31:09.423Z,8.78
2019-05-03T02:33:39.905Z,8.74
2019-05-03T02:36:13.290Z,8.74
2019-05-03T02:38:43.123Z,8.72
2019-05-03T02:41:13.717Z,8.60
2019-05-03T02:43:49.775Z,8.36
2019-05-03T02:46:57.772Z,8.19
2019-05-03T02:49:35.472Z,7.90
2019-05-03T02:52:06.619Z,8.06
2019-05-03T02:54:38.521Z,7.95
2019-05-03T02:57:09.268Z,7.82
2019-05-03T02:59:39.595Z,7.77
2019-05-03T03:02:10.142Z,7.87
2019-05-03T03:04:41.803Z,7.97
2019-05-03T03:07:15.165Z,8.01
2019-05-03T03:09:45.737Z,8.27
2019-05-03T03:12:17.548Z,8.33
2019-05-03T03:14:49.419Z,8.09
2019-05-03T03:17:25.447Z,7.98
2019-05-03T03:19:57.827Z,5.99
2019-05-03T03:22:30.233Z,8.05
2019-05-03T03:25:05.289Z,7.74
2019-05-03T03:27:37.521Z,7.86
2019-05-03T03:30:29.000Z,7.95
2019-05-03T03:33:00.984Z,7.92
2019-05-03T03:35:37.617Z,8.09
2019-05-03T03:38:05.881Z,6.11
2019-05-03T03:40:36.774Z,8.23
2019-05-03T03:43:08.876Z,8.25
2019-05-03T03:45:41.287Z,8.20
2019-05-03T03:48:15.849Z,8.18
2019-05-03T03:50:47.976Z,8.25
2019-05-03T03:53:20.161Z,8.31
2019-05-03T03:55:52.031Z,8.35
2019-05-03T03:58:23.231Z,8.28
2019-05-03T04:00:55.466Z,8.22
2019-05-03T04:03:27.394Z,8.35
2019-05-03T04:05:57.898Z,8.33
2019-05-03T04:08:28.819Z,8.26
2019-05-03T04:10:59.723Z,8.67
2019-05-03T04:13:31.641Z,8.72
2019-05-03T04:16:20.984Z,8.65
2019-05-03T04:19:05.737Z,8.64
2019-05-03T04:21:35.971Z,8.83
2019-05-03T04:24:06.658Z,9.12
2019-05-03T04:26:38.315Z,9.20
2019-05-03T04:29:08.739Z,9.45
2019-05-03T04:31:39.180Z,9.23
2019-05-03T04:34:10.018Z,9.37
2019-05-03T04:36:40.455Z,9.82
2019-05-03T04:39:10.775Z,9.68
2019-05-03T04:41:41.459Z,9.68
2019-05-03T04:44:15.313Z,9.83
2019-05-03T04:46:46.482Z,9.92
2019-05-03T04:49:16.907Z,10.12
2019-05-03T04:51:48.253Z,10.28
2019-05-03T04:54:37.189Z,10.33
2019-05-03T04:57:07.661Z,10.43
2019-05-03T04:59:38.132Z,10.63
2019-05-03T05:02:09.908Z,10.74
2019-05-03T05:04:40.460Z,10.93
2019-05-03T05:07:10.802Z,11.26
2019-05-03T05:09:41.441Z,11.36
2019-05-03T05:12:12.142Z,11.14
2019-05-03T05:14:42.541Z,11.29
2019-05-03T05:17:16.298Z,11.50
2019-05-03T05:19:54.811Z,11.57
2019-05-03T05:22:28.599Z,11.74
2019-05-03T05:25:00.792Z,11.92
2019-05-03T05:27:49.481Z,11.90
2019-05-03T05:30:16.097Z,12.18
2019-05-03T05:32:46.871Z,12.27
2019-05-03T05:35:17.149Z,12.27
2019-05-03T05:37:47.845Z,12.37
2019-05-03T05:40:21.598Z,12.54
2019-05-03T05:42:54.574Z,12.50
2019-05-03T05:45:24.747Z,12.35
2019-05-03T05:48:05.573Z,12.51
2019-05-03T05:50:38.377Z,12.64
2019-05-03T05:53:09.199Z,12.48
2019-05-03T05:56:05.046Z,12.48
2019-05-03T05:58:39.014Z,12.72
2019-05-03T06:01:14.784Z,12.74
2019-05-03T06:03:45.110Z,13.05
2019-05-03T06:06:21.346Z,12.91
2019-05-03T06:09:05.850Z,13.12
2019-05-03T06:11:58.342Z,13.21
2019-05-03T06:14:36.534Z,13.35
2019-05-03T06:17:21.230Z,13.39
2019-05-03T06:20:09.865Z,13.46
2019-05-03T06:22:47.267Z,13.77
2019-05-03T06:25:26.603Z,14.00
2019-05-03T06:27:55.821Z,13.90
2019-05-03T06:30:41.963Z,13.96
2019-05-03T06:33:14.298Z,14.04
2019-05-03T06:35:44.593Z,14.27
2019-05-03T06:38:16.331Z,14.38
2019-05-03T06:40:46.847Z,14.73
2019-05-03T06:43:17.258Z,14.69
2019-05-03T06:45:50.348Z,14.91
2019-05-03T06:48:22.336Z,15.19
2019-05-03T06:50:52.139Z,15.02
2019-05-03T06:53:22.547Z,15.08
2019-05-03T06:55:52.907Z,15.42
2019-05-03T06:58:31.305Z,15.59
2019-05-03T07:01:21.682Z,15.71
2019-05-03T07:03:56.244Z,15.59
2019-05-03T07:06:40.627Z,16.02
2019-05-03T07:09:21.118Z,15.99
2019-05-03T07:11:51.441Z,16.09
2019-05-03T07:14:22.086Z,16.23
2019-05-03T07:16:52.777Z,16.44
2019-05-03T07:19:24.880Z,16.50
2019-05-03T07:21:55.187Z,16.58
2019-05-03T07:24:25.604Z,16.81
2019-05-03T07:26:58.951Z,17.08
2019-05-03T07:29:28.456Z,17.16
2019-05-03T07:31:58.764Z,17.36
2019-05-03T07:34:29.533Z,17.42
2019-05-03T07:37:01.086Z,17.57
2019-05-03T07:39:31.416Z,17.49
2019-05-03T07:42:02.028Z,17.50
2019-05-03T07:44:34.575Z,17.68
2019-05-03T07:47:05.011Z,17.30
2019-05-03T07:49:35.888Z,17.72
2019-05-03T07:52:06.770Z,17.82
2019-05-03T07:54:37.061Z,17.69
2019-05-03T07:57:27.387Z,18.22
2019-05-03T07:59:57.772Z,18.30
2019-05-03T08:02:28.419Z,18.30
2019-05-03T08:04:59.266Z,18.39
2019-05-03T08:07:29.580Z,18.65
2019-05-03T08:10:00.083Z,18.65
2019-05-03T08:12:30.762Z,18.82
2019-05-03T08:15:01.108Z,18.79
2019-05-03T08:17:31.498Z,19.01
2019-05-03T08:20:02.250Z,19.01
2019-05-03T08:22:34.510Z,18.75
2019-05-03T08:25:05.507Z,19.15
2019-05-03T08:27:36.237Z,19.15
2019-05-03T08:30:08.904Z,19.26
2019-05-03T08:32:52.079Z,19.26
2019-05-03T08:35:44.755Z,19.48
2019-05-03T08:38:15.529Z,19.77
2019-05-03T08:40:47.628Z,19.96
2019-05-03T08:43:18.158Z,20.17
2019-05-03T08:45:48.695Z,20.15
2019-05-03T08:48:19.022Z,20.12
2019-05-03T08:50:49.421Z,20.45
2019-05-03T08:53:20.179Z,20.54
2019-05-03T08:55:50.470Z,20.90
2019-05-03T08:58:20.824Z,20.92
2019-05-03T09:00:51.511Z,21.01
2019-05-03T09:03:21.889Z,21.23
2019-05-03T09:05:56.236Z,20.94
2019-05-03T09:08:25.096Z,21.09
2019-05-03T09:10:59.962Z,20.91
2019-05-03T09:13:48.393Z,21.42
2019-05-03T09:16:18.802Z,21.71
2019-05-03T09:18:50.279Z,22.09
2019-05-03T09:21:20.969Z,22.24
2019-05-03T09:23:51.436Z,21.39
2019-05-03T09:26:21.845Z,20.86
2019-05-03T09:28:52.733Z,21.71
2019-05-03T09:31:24.669Z,21.10
2019-05-03T09:33:55.181Z,21.49
2019-05-03T09:36:26.005Z,22.02
2019-05-03T09:38:56.321Z,21.70
2019-05-03T09:41:27.090Z,21.90
2019-05-03T09:43:57.468Z,21.42
2019-05-03T09:46:27.927Z,20.66
2019-05-03T09:49:12.614Z,21.03
2019-05-03T09:51:31.182Z,20.46
2019-05-03T09:54:08.196Z,21.23
2019-05-03T09:56:58.676Z,21.46
2019-05-03T09:59:30.795Z,21.45
2019-05-03T10:02:04.621Z,21.97
2019-05-03T10:04:36.592Z,22.87
2019-05-03T10:07:07.505Z,23.68
2019-05-03T10:09:37.826Z,22.88
2019-05-03T10:12:12.320Z,22.70
2019-05-03T10:14:42.663Z,22.38
2019-05-03T10:17:31.210Z,23.27
2019-05-03T10:20:02.166Z,22.95
2019-05-03T10:22:34.891Z,23.72
2019-05-03T10:25:05.854Z,23.34
2019-05-03T10:27:46.041Z,23.40
2019-05-03T10:30:21.551Z,23.03
2019-05-03T10:32:57.999Z,22.60
2019-05-03T10:35:28.623Z,23.53
2019-05-03T10:37:59.119Z,22.86
2019-05-03T10:40:29.432Z,21.39
2019-05-03T10:43:01.053Z,22.65
2019-05-03T10:45:31.385Z,21.86
2019-05-03T10:48:02.027Z,22.83
2019-05-03T10:50:34.239Z,23.16
2019-05-03T10:53:09.480Z,23.14
2019-05-03T10:55:41.837Z,22.29
2019-05-03T10:58:17.414Z,22.84
2019-05-03T11:00:53.344Z,23.66
2019-05-03T11:03:23.041Z,23.76
2019-05-03T11:05:54.862Z,24.19
2019-05-03T11:08:25.474Z,24.53
2019-05-03T11:10:56.105Z,24.59
2019-05-03T11:13:26.980Z,24.96
2019-05-03T11:15:57.314Z,24.61
2019-05-03T11:18:28.265Z,24.86
2019-05-03T11:20:58.587Z,24.39
2019-05-03T11:23:29.277Z,24.78
2019-05-03T11:26:00.005Z,25.22
2019-05-03T11:28:30.387Z,26.24
2019-05-03T11:31:20.011Z,25.60
2019-05-03T11:33:50.850Z,25.77
2019-05-03T11:36:32.265Z,24.75
2019-05-03T11:39:04.897Z,24.08
2019-05-03T11:41:37.121Z,24.36
2019-05-03T11:44:25.017Z,24.91
2019-05-03T11:46:55.745Z,24.50
2019-05-03T11:49:26.023Z,25.23
2019-05-03T11:51:56.601Z,24.97
2019-05-03T11:54:27.288Z,25.51
2019-05-03T11:56:59.502Z,24.40
2019-05-03T11:59:30.238Z,24.28
2019-05-03T12:02:10.108Z,25.01
2019-05-03T12:04:40.552Z,24.57
2019-05-03T12:07:15.005Z,24.85
2019-05-03T12:09:45.253Z,24.24
2019-05-03T12:12:29.486Z,24.16
2019-05-03T12:14:59.768Z,25.34
2019-05-03T12:17:35.009Z,25.43
2019-05-03T12:20:07.942Z,25.66
2019-05-03T12:22:39.394Z,26.26
2019-05-03T12:25:12.324Z,27.15
2019-05-03T12:27:44.482Z,27.04
2019-05-03T12:30:15.823Z,26.20
2019-05-03T12:32:46.179Z,25.92
2019-05-03T12:35:16.641Z,26.48
2019-05-03T12:37:47.503Z,26.20
2019-05-03T12:40:17.814Z,27.34
2019-05-03T12:42:48.100Z,27.85
2019-05-03T12:45:18.795Z,28.42
2019-05-03T12:47:49.125Z,26.42
2019-05-03T12:50:19.610Z,26.52
2019-05-03T12:52:50.843Z,26.75
2019-05-03T12:55:21.537Z,26.96
2019-05-03T12:57:51.865Z,26.04
2019-05-03T13:00:40.681Z,25.29
2019-05-03T13:03:18.011Z,25.58
2019-05-03T13:05:48.310Z,24.80
2019-05-03T13:08:39.193Z,24.44
2019-05-03T13:11:10.395Z,23.95
2019-05-03T13:13:40.788Z,23.96
2019-05-03T13:16:15.177Z,23.75
2019-05-03T13:18:45.925Z,23.43
2019-05-03T13:21:16.293Z,23.33
2019-05-03T13:23:46.671Z,23.47
2019-05-03T13:26:17.299Z,23.09
2019-05-03T13:28:47.740Z,23.13
2019-05-03T13:31:18.470Z,23.42
2019-05-03T13:33:48.800Z,23.11
2019-05-03T13:36:19.191Z,23.18
2019-05-03T13:38:49.755Z,23.03
2019-05-03T13:41:20.078Z,22.79
2019-05-03T13:43:50.358Z,23.20
2019-05-03T13:46:21.177Z,22.92
2019-05-03T13:48:51.497Z,23.05
2019-05-03T13:51:21.828Z,23.36
2019-05-03T13:53:54.903Z,23.03
2019-05-03T13:56:25.026Z,23.22
2019-05-03T13:58:55.636Z,23.23
2019-05-03T14:01:26.112Z,23.86
2019-05-03T14:03:56.404Z,24.00
2019-05-03T14:06:27.204Z,24.11
2019-05-03T14:08:57.657Z,24.44
2019-05-03T14:11:28.103Z,24.50
2019-05-03T14:13:58.873Z,24.55
2019-05-03T14:16:29.794Z,24.73
2019-05-03T14:19:05.549Z,24.60
2019-05-03T14:21:41.325Z,24.10
2019-05-03T14:24:13.028Z,23.51
2019-05-03T14:26:44.754Z,23.40
2019-05-03T14:29:15.523Z,23.37
2019-05-03T14:31:45.847Z,23.24
2019-05-03T14:34:17.526Z,23.58
2019-05-03T14:36:48.408Z,23.18
2019-05-03T14:39:18.712Z,23.50
2019-05-03T14:41:49.497Z,23.37
2019-05-03T14:44:19.952Z,22.82
2019-05-03T14:46:50.355Z,22.90
2019-05-03T14:49:20.827Z,22.70
2019-05-03T14:51:51.657Z,22.90
2019-05-03T14:54:24.925Z,22.69
2019-05-03T14:57:16.714Z,22.60
2019-05-03T15:00:17.146Z,22.67
2019-05-03T15:02:58.075Z,22.60
2019-05-03T15:05:29.890Z,22.92
2019-05-03T15:08:00.196Z,22.85
2019-05-03T15:10:31.608Z,22.95
2019-05-03T15:13:05.239Z,22.74
2019-05-03T15:15:35.727Z,22.95
2019-05-03T15:18:06.429Z,23.03
2019-05-03T15:20:37.588Z,22.78
2019-05-03T15:23:08.082Z,22.77
2019-05-03T15:25:38.493Z,22.41
2019-05-03T15:28:09.233Z,21.67
2019-05-03T15:30:39.530Z,21.67
2019-05-03T15:33:09.856Z,21.81
2019-05-03T15:35:40.549Z,21.79
2019-05-03T15:38:11.194Z,21.72
2019-05-03T15:40:41.836Z,21.37
2019-05-03T15:43:28.845Z,21.75
2019-05-03T15:46:17.336Z,21.78
2019-05-03T15:48:50.831Z,21.90
2019-05-03T15:51:21.122Z,21.75
2019-05-03T15:53:51.480Z,21.61
2019-05-03T15:56:22.198Z,21.73
2019-05-03T15:58:52.700Z,21.78
2019-05-03T16:01:24.867Z,21.74
2019-05-03T16:03:55.742Z,21.39
2019-05-03T16:06:26.437Z,21.63
2019-05-03T16:08:57.039Z,21.45
2019-05-03T16:11:27.333Z,21.70
2019-05-03T16:13:57.694Z,21.29
2019-05-03T16:16:28.381Z,21.57
2019-05-03T16:18:59.283Z,21.38
2019-05-03T16:21:30.031Z,21.59
2019-05-03T16:24:00.767Z,21.66
2019-05-03T16:26:31.508Z,21.56
2019-05-03T16:29:09.839Z,21.11
2019-05-03T16:31:40.587Z,21.26
2019-05-03T16:34:11.355Z,21.48
2019-05-03T16:36:41.878Z,21.28
2019-05-03T16:39:15.303Z,21.27
2019-05-03T16:41:45.628Z,20.96
2019-05-03T16:44:16.550Z,20.65
2019-05-03T16:46:47.403Z,20.66
2019-05-03T16:49:17.849Z,20.88
2019-05-03T16:51:48.596Z,20.93
2019-05-03T16:54:19.359Z,21.18
2019-05-03T16:56:49.663Z,20.88
2019-05-03T16:59:20.179Z,20.91
2019-05-03T17:01:50.970Z,20.71
2019-05-03T17:04:35.550Z,20.66
2019-05-03T17:07:15.226Z,20.57
2019-05-03T17:09:49.765Z,20.82
2019-05-03T17:12:25.703Z,20.93
2019-05-03T17:14:56.997Z,21.25
2019-05-03T17:17:27.937Z,20.87
2019-05-03T17:19:58.509Z,20.85
2019-05-03T17:22:28.867Z,20.73
2019-05-03T17:24:59.628Z,20.47
2019-05-03T17:27:29.992Z,20.41
2019-05-03T17:30:00.318Z,20.33
2019-05-03T17:32:30.778Z,20.27
2019-05-03T17:35:01.449Z,20.15
2019-05-03T17:37:31.730Z,20.11
2019-05-03T17:40:21.094Z,19.60
2019-05-03T17:43:07.433Z,19.18
2019-05-03T17:45:41.748Z,19.47
2019-05-03T17:48:12.546Z,19.51
2019-05-03T17:50:45.438Z,18.39
2019-05-03T17:53:29.643Z,18.39
2019-05-03T17:56:06.375Z,18.42
2019-05-03T17:58:55.164Z,18.42
2019-05-03T18:01:44.659Z,18.49
2019-05-03T18:11:54.956Z,18.54
2019-05-03T18:14:25.273Z,18.64
2019-05-03T18:16:55.998Z,18.43
2019-05-03T18:19:26.698Z,18.41
2019-05-03T18:21:57.047Z,18.51
2019-05-03T18:24:27.453Z,18.47
2019-05-03T18:26:58.242Z,18.38
2019-05-03T18:29:28.527Z,18.32
2019-05-03T18:32:00.314Z,18.32
2019-05-03T18:34:33.464Z,18.36
2019-05-03T18:37:04.865Z,18.13
2019-05-03T18:39:38.454Z,18.16
2019-05-03T18:42:12.414Z,18.17
2019-05-03T18:44:47.188Z,17.99
2019-05-03T18:47:25.076Z,18.20
2019-05-03T18:49:56.441Z,18.20
2019-05-03T18:52:29.140Z,17.80
2019-05-03T18:54:59.777Z,17.66
2019-05-03T18:57:30.326Z,17.60
2019-05-03T19:00:00.930Z,17.21
2019-05-03T19:02:33.481Z,16.98
2019-05-03T19:05:05.107Z,17.02
2019-05-03T19:07:54.971Z,16.82
2019-05-03T19:10:45.671Z,16.60
2019-05-03T19:13:22.437Z,16.27
2019-05-03T19:15:55.070Z,16.30
2019-05-03T19:18:35.394Z,16.40
2019-05-03T19:21:06.347Z,16.42
2019-05-03T19:23:36.802Z,16.41
2019-05-03T19:26:07.252Z,16.49
2019-05-03T19:28:37.661Z,16.71
2019-05-03T19:31:08.597Z,16.73
2019-05-03T19:33:39.637Z,16.64
2019-05-03T19:36:10.030Z,16.76
2019-05-03T19:38:40.777Z,16.39
2019-05-03T19:41:11.629Z,16.56
2019-05-03T19:43:42.089Z,16.30
2019-05-03T19:46:12.635Z,16.20
2019-05-03T19:48:45.246Z,16.10
2019-05-03T19:51:15.069Z,16.05
2019-05-03T19:54:05.379Z,16.03
2019-05-03T19:56:35.772Z,16.02
2019-05-03T19:59:09.657Z,16.00
2019-05-03T20:01:59.345Z,15.98
2019-05-03T20:04:57.414Z,16.03
2019-05-03T20:07:45.204Z,15.79
2019-05-03T20:10:18.072Z,15.73
2019-05-03T20:12:48.250Z,15.67
2019-05-03T20:15:18.721Z,15.44
2019-05-03T20:17:57.420Z,15.38
2019-05-03T20:20:21.824Z,15.32
2019-05-03T20:22:52.116Z,15.25
2019-05-03T20:25:24.409Z,15.25
2019-05-03T20:27:55.952Z,15.13
2019-05-03T20:30:26.569Z,15.22
2019-05-03T20:32:57.356Z,15.05
2019-05-03T20:35:28.181Z,15.11
2019-05-03T20:37:58.546Z,14.78
2019-05-03T20:40:29.299Z,14.92
2019-05-03T20:43:13.002Z,14.65
2019-05-03T20:46:04.947Z,14.52
2019-05-03T20:48:36.350Z,14.59
2019-05-03T20:51:06.859Z,14.65
2019-05-03T20:53:37.147Z,14.61
2019-05-03T20:56:07.861Z,14.69
2019-05-03T20:58:38.154Z,14.53
2019-05-03T21:01:11.893Z,14.69
2019-05-03T21:03:45.098Z,14.33
2019-05-03T21:06:18.238Z,14.07
2019-05-03T21:08:53.160Z,14.04
2019-05-03T21:11:21.423Z,13.95
2019-05-03T21:13:51.719Z,13.75
2019-05-03T21:16:29.992Z,13.69
2019-05-03T21:19:16.832Z,13.86
2019-05-03T21:21:50.024Z,13.67
2019-05-03T21:24:34.872Z,13.47
2019-05-03T21:27:05.831Z,13.49
2019-05-03T21:29:49.595Z,13.41
2019-05-03T21:32:20.423Z,13.35
2019-05-03T21:34:51.088Z,13.34
2019-05-03T21:37:25.243Z,13.35
2019-05-03T21:39:55.896Z,13.58
2019-05-03T21:42:26.238Z,13.56
2019-05-03T21:44:56.522Z,13.38
2019-05-03T21:47:35.161Z,13.20
2019-05-03T21:50:07.172Z,13.19
2019-05-03T21:52:37.512Z,13.07
2019-05-03T21:55:08.253Z,12.98
2019-05-03T21:57:39.009Z,12.94
2019-05-03T22:00:11.005Z,12.93
2019-05-03T22:02:42.943Z,12.84
2019-05-03T22:05:14.213Z,12.84
2019-05-03T22:07:45.697Z,12.81
2019-05-03T22:10:16.292Z,12.75
2019-05-03T22:12:46.615Z,12.61
2019-05-03T22:15:32.113Z,12.54
2019-05-03T22:18:18.133Z,12.47
2019-05-03T22:21:11.735Z,12.35
2019-05-03T22:24:14.763Z,12.38
2019-05-03T22:26:52.882Z,12.53
2019-05-03T22:29:25.427Z,12.39
2019-05-03T22:31:56.383Z,12.41
2019-05-03T22:34:26.773Z,12.43
2019-05-03T22:36:57.286Z,12.51
2019-05-03T22:39:27.564Z,12.41
2019-05-03T22:41:58.264Z,12.42
2019-05-03T22:44:28.628Z,12.41
2019-05-03T22:46:58.994Z,12.39
2019-05-03T22:49:29.378Z,12.45
2019-05-03T22:51:59.711Z,12.58
2019-05-03T22:54:30.027Z,12.72
2019-05-03T22:57:00.319Z,12.88
2019-05-03T22:59:30.839Z,12.92
2019-05-03T23:02:01.378Z,13.22
2019-05-03T23:04:31.675Z,13.44
2019-05-03T23:07:02.102Z,13.70
2019-05-03T23:09:32.379Z,13.77
2019-05-03T23:12:02.726Z,13.95
2019-05-03T23:14:34.746Z,14.05
2019-05-03T23:17:05.192Z,14.04
2019-05-03T23:19:37.172Z,14.01
2019-05-03T23:22:25.886Z,13.76
2019-05-03T23:24:57.179Z,13.85
2019-05-03T23:27:27.484Z,13.49
2019-05-03T23:29:57.961Z,13.42
2019-05-03T23:32:28.388Z,13.58
2019-05-03T23:34:58.729Z,13.62
2019-05-03T23:37:29.113Z,13.71
2019-05-03T23:39:59.435Z,13.59
2019-05-03T23:42:29.893Z,13.95
2019-05-03T23:45:02.349Z,14.11
2019-05-03T23:47:37.600Z,14.05
2019-05-03T23:50:10.105Z,14.19
2019-05-03T23:52:40.453Z,14.07
2019-05-03T23:55:22.808Z,14.03
2019-05-03T23:57:55.296Z,14.08
